Hodgkins, Illinois
Current Conditions -  °F | °C
As of 9:53 AM on Monday 22 Dec 2014 (Local Time) from KMDW Reporting Station
Overcast Overcast  
Wind Chill: 28°   Ceiling: 5000
Heat Index: 36°   Visibility: 8mi
Dew Point: 28°   Wind: 10mph
Humidity: 73%   Direction: 120°ESE
Pressure: 29.89"   Gusts: NA
Location:  41.7814°N, 87.8717°W
Report Text: KMDW 221553Z 12009KT 8SM OVC050 02/M02 A2989 RMK AO2 SLP131 T00221022
Loading
Personal Weather Stations






























Interactive Weather Map New forecast layout! Learn more

10-Day Weather Forecast

Advertisements
Track Severe Weather on mobile